Aviation Digital Data Service (ADDS)

Output produced by METARs form (1527 UTC 18 June 2018)
found at http://www.aviationweather.gov/adds/metars/
 
KNMM 181456Z VRB04KT 10SM OVC150 29/24 A3018 RMK AO2 SLP224 T02890239 51008 $
KNMM 181356Z 07003KT 10SM FEW019 27/23 A3017 RMK AO2 SLP223 T02670228 $
KNMM 181303Z 06003KT 10SM SCT010 BKN110 25/23 A3017 RMK AO2 T02500228 $
KNMM 181256Z 00000KT 10SM BKN011 BKN110 24/22 A3016 RMK AO2 SLP221 T02440222 $
KNMM 181156Z 10003KT 9SM FEW150 SCT250 22/21 A3015 RMK AO2 SLP216 70001 T02220211 10228 20211 53015 $
KNMM 181125Z AUTO 00000KT 8SM CLR 22/21 A3014 RMK AO2 T02170206 $
KNMM 181117Z AUTO 00000KT 2SM BR FEW008 21/21 A3014 RMK AO2 VIS 1V5 T02110206 $
KNMM 181115Z AUTO 36003KT 1SM BR VV008 21/21 A3014 RMK AO2 VIS 1/4V5 T02110206 $
KNMM 181107Z AUTO 00000KT 3/4SM BR CLR 21/21 A3014 RMK AO2 VIS 1/4V5 T02110206 $
KNMM 181103Z AUTO 00000KT 1 3/4SM BR FEW008 21/21 A3014 RMK AO2 VIS 3/4V5 T02110206 $
KNMM 181056Z AUTO 00000KT 3SM BR FEW008 21/20 A3013 RMK AO2 VIS 1 3/4 SOUTH SLP211 T02110200 $
KNMM 180956Z AUTO 00000KT 10SM CLR 22/21 A3011 RMK AO2 SLP204 T02170206 $
KNMM 180856Z AUTO 00000KT 10SM CLR 23/22 A3011 RMK AO2 VIS 1 SOUTH SLP201 T02280217 55004 $
KNMM 180756Z AUTO 17003KT 10SM CLR 23/22 A3010 RMK AO2 SLP198 T02280217 $
KNMM 180656Z AUTO 19004KT 10SM CLR 23/22 A3010 RMK AO2 SLP200 T02280217 $
KNMM 180556Z AUTO 13003KT 10SM CLR 23/22 A3012 RMK AO2 SLP205 T02280217 10300 20228 403440228 58006 $
KNMM 180456Z AUTO 15004KT 10SM CLR 23/22 A3014 RMK AO2 SLP211 T02330222 $
KNMM 180356Z AUTO 08004KT 10SM CLR 25/23 A3014 RMK AO2 SLP213 T02500228 $
KNMM 180256Z AUTO 14003KT 10SM OVC110 25/23 A3014 RMK AO2 SLP211 T02500233 51017 $
KNMM 180156Z AUTO 09004KT 10SM SCT110 26/23 A3013 RMK AO2 SLP208 T02610228 $
KNMM 180056Z 00000KT 10SM FEW041 SCT110 BKN300 27/23 A3010 RMK AO2 SLP198 T2 SET T02720233 $
KNMM 172356Z 14006KT 10SM FEW050 SCT120 BKN300 30/23 A3009 RMK AO2 SLP194 T2 SET 60001 T03000228 10344 20283 55001 $
KNMM 172256Z VRB04KT 10SM FEW050 FEW300 32/22 A3007 RMK SLP189 CB DSNT E T2 SET
KNMM 172156Z 25007KT 10SM FEW050 FEW120 SCT300 31/22 A3008 RMK AO2 RAE08 SLP190 OCNL LTGICCG DSNT NE CB DSNT NE T2 SET P0000 T03110222 $
KNMM 172112Z 26009KT 10SM FEW049 SCT120 SCT300 29/23 A3008 RMK AO2 RAE08 T2 SET P0000 T02940233 $
KNMM 172056Z 26010KT 7SM -RA SCT055 BKN120 BKN300 28/24 A3009 RMK AO2 RAB47 SLP195 T2 SET P0001 60001 T02830244 55006 $
KNMM 172020Z 16003KT 10SM SCT050 BKN300 33/22 A3008 RMK AO2 T2 SET T03330217 $
KNMM 171956Z AUTO VRB04KT 10SM FEW050 33/21 A3008 RMK AO2 SLP194 T03330211 $
KNMM 171856Z AUTO 15005KT 10SM FEW050 FEW060 33/22 A3010 RMK AO2 SLP198 T03280217 $
KNMM 171756Z AUTO 18007KT 10SM SCT047 BKN065 32/21 A3011 RMK AO2 SLP202 T03220211 10333 20244 58008 $
KNMM 171656Z AUTO 10SM SCT043 33/22 A3012 RMK AO2 SLP206 T03280217 $
KNMM 171556Z AUTO VRB05KT 10SM CLR 32/21 A3014 RMK AO2 SLP211 T03170206 $
KNMM 171456Z AUTO 26005KT 10SM FEW025 30/23 A3013 RMK AO2 SLP210 T03000228 50002 $
KNMM 171356Z AUTO VRB03KT 10SM CLR 29/24 A3014 RMK AO2 SLP211 T02890244 $
KNMM 171256Z AUTO 00000KT 10SM SCT008 27/24 A3013 RMK AO2 SLP208 T02670239 $
KNMM 171252Z AUTO 00000KT 10SM SCT008 26/24 A3013 RMK AO2 $
KNMM 171242Z AUTO 00000KT 10SM BKN008 26/24 A3012 RMK AO2 T02610239 $
KNMM 171234Z AUTO 00000KT 10SM SCT008 26/24 A3012 RMK AO2 T02610239 $
KNMM 171156Z AUTO 00000KT 9SM CLR 24/23 A3010 RMK AO2 SLP199 7//// T02440228 10250 20233 51014 $
KNMM 171056Z AUTO 00000KT 7SM SCT075 OVC110 24/23 A3009 RMK AO2 SLP195 T02390228 $
KNMM 170956Z AUTO 00000KT 10SM FEW085 SCT100 23/22 A3007 RMK AO2 VIS 1 1/2 SOUTH SLP190 T02330222 $
KNMM 170856Z AUTO 14003KT 10SM CLR 24/23 A3006 RMK AO2 SLP185 T02390228 53004 $
KNMM 170756Z AUTO 00000KT 10SM CLR 24/23 A3005 RMK AO2 SLPNO T02440228 $
KNMM 170656Z AUTO 00000KT 9SM CLR 24/23 A3004 RMK AO2 SLP180 T02390228 $
KNMM 170356Z AUTO 00000KT 10SM CLR 26/23 A3006 RMK AO2 SLP185 T02560233 $
KNMM 170256Z AUTO 00000KT 10SM CLR 27/24 A3005 RMK AO2 SLP181 T02670239 52020 $
KNMM 170156Z AUTO 12007KT 10SM BKN042 27/24 A3003 RMK AO2 SLP174 T02720239 $
KNMM 170056Z AUTO 18004KT 10SM CLR 28/24 A3001 RMK AO2 SLP167 T02830239
KNMM 162356Z AUTO 14004KT 10SM CLR 30/24 A2999 RMK AO2 SLP160 6//// T03000239 10339 20267 53002
KNMM 162256Z AUTO 17004KT 10SM CLR 33/23 A2997 RMK AO2 SLP153 T03280233
KNMM 162156Z AUTO 15007KT 10SM FEW039 33/23 A2998 RMK AO2 SLP156 T03330233
KNMM 162056Z AUTO 17007KT 10SM SCT041 SCT050 33/24 A2998 RMK AO2 SLP158 6//// T03280244
KNMM 152256Z AUTO 17005KT 10SM CLR 27/20 A2995 RMK AO2 TSE28 SLP149 T02670200 $
KNMM 152228Z 16005KT 10SM SCT034 SCT090 BKN250 27/22 A2996 RMK AO2 TSE28 OCNL LTGICCG DSNT NE AND S CB DSNT NE AND S T1 SET T02670217 $
KNMM 152156Z 17004KT 10SM TS BKN040CB BKN110 BKN250 30/26 A2996 RMK AO2 TSB48 SLP150 OCNL LTGICCCCG VC SE TS SE MOV W T2 SET T03000256 $
KNMM 152148Z 00000KT 10SM TS BKN040CB BKN110 BKN250 31/25 A2995 RMK AO2 TSB48 OCNL LTGICCCCG VC SE TS SE MOV W T2 SET T03060250 $
KNMM 152056Z 00000KT 10SM SCT040 BKN140 BKN250 32/24 A2995 RMK AO2 SLP149 CB DSNT SE T2 SET T03220239 56021 $
KNMM 151956Z 16005KT 10SM FEW045 FEW140 BKN250 32/25 A2996 RMK AO2 SLP151 T03170250 $
KNMM 151856Z 20004KT 10SM FEW040 FEW070 SCT140 BKN250 31/25 A2999 RMK AO2 SLP160 CB DSNT E AND W T03060250 $
KNMM 151756Z 22005KT 10SM SCT030 SCT070 BKN140 BKN250 28/24 A3002 RMK AO2 RAB16E28 SLP171 P0000 60001 T02780239 10300 20228 58006 $
KNMM 151716Z 26007KT 10SM -RA SCT026 BKN060 BKN140 BKN250 28/24 A3003 RMK AO2 RAB16 P0000 T02830244 $
KNMM 151715Z 25007KT 10SM SCT026 BKN060 BKN140 BKN250 28/24 A3003 RMK T02830244
KNMM 151656Z 26007KT 10SM BKN024 BKN060 BKN140 OVC250 29/24 A3003 RMK AO2 RAB32E43 SLP175 P0000 T02890244 $
KNMM 151556Z 23003KT 10SM BKN023 BKN030 OVC036 29/24 A3003 RMK AO2 SLP175 T02890244 $
KNMM 151549Z 23003KT 10SM BKN023 BKN033 BKN190 29/24 A3003 RMK AO2 T02890239 $